Alto, New Mexico
Current Conditions -  °F | °C
As of 9:15 AM on Monday 26 Jan 2015 (Local Time) from KSRR Reporting Station
Clear Clear  
Wind Chill: 45°   Ceiling: Unl
Heat Index: 45°   Visibility: 10mi
Dew Point: 23°   Wind: 3mph
Humidity: 43%   Direction: 330°NNW
Pressure: 30.4"   Gusts: NA
Location:  33.39°N, 105.69°W
Report Text: KSRR 261615Z AUTO 33003KT 10SM CLR 07/M05 A3040 RMK AO2
Loading
Personal Weather Stations






























Interactive Weather Map New forecast layout! Learn more

10-Day Weather Forecast

Advertisements
Track Severe Weather on mobile